Decoded Metar for CYHD (DRYDEN in ON, CANADA) (IATA:YHD) | Meteo·Mobile Aviation Weather
aviador You're here:

CYHD Decoded Metar

DRYDEN in ON, CANADA
Report Time2018-12-17 13:00:00
UTC Time2018-12-17 14:00:56
Flight Rules vfr VFR
Wind270° at 06 kt
W.Decomp.*RWY 30: 5.2 kt HW 3 kt LCW
RWY 24: 5.2 kt HW 3.0 kt RCW
W.Rank270° ranks 3
Current wind is below 270° avg. (9.0)
Visibility9999 m
Phenomena:N/A
Clouds:N/A
Expected CloudBase > 400 ft AGL from Temp-Dew spread
CeilingNone
Temp-17°C (ISA -29)
Dew Point-18°C (92% RH)
AAT-22.7°C
QNH1023 hPa
Density Alt-2,677 ft
Elevation1,355 ft
Report Wrong Elevation
Raw Report
CYHD 171300Z AUTO 27006KT 9SM CLR M17/M18 A3022 RMK SLP274=

Extra information for CYHD:More info

Metar Taf Metar & Taf Last 4 Metars F.Rules Stats Wind Profile Meteogram Temp Stats Airport Information Weather charts Add Link Nearby VenuesMetar ALERT Operation Metar Decoded Social comments